sensor_id;sensor_type;location;lat;lon;timestamp;pressure;altitude;pressure_sealevel;temperature;humidity
75221;BME280;63802;53.232;6.570;2022-11-15T00:01:17;100987.94;;;7.18;88.24
75221;BME280;63802;53.232;6.570;2022-11-15T00:03:43;100960.31;;;7.04;88.63
75221;BME280;63802;53.232;6.570;2022-11-15T00:06:09;100983.66;;;7.17;88.57
75221;BME280;63802;53.232;6.570;2022-11-15T00:08:35;100982.84;;;7.16;88.53
75221;BME280;63802;53.232;6.570;2022-11-15T00:11:02;100957.16;;;7.02;88.32
75221;BME280;63802;53.232;6.570;2022-11-15T00:13:29;100969.91;;;7.01;88.68
75221;BME280;63802;53.232;6.570;2022-11-15T00:16:00;100972.53;;;6.98;88.60
75221;BME280;63802;53.232;6.570;2022-11-15T00:18:26;100977.44;;;6.84;88.41
75221;BME280;63802;53.232;6.570;2022-11-15T00:20:52;100975.13;;;6.73;88.52
75221;BME280;63802;53.232;6.570;2022-11-15T00:23:17;100979.25;;;6.59;89.04
75221;BME280;63802;53.232;6.570;2022-11-15T00:25:43;100972.06;;;6.42;89.41
75221;BME280;63802;53.232;6.570;2022-11-15T00:28:08;100956.75;;;6.17;89.31
75221;BME280;63802;53.232;6.570;2022-11-15T00:30:34;100978.25;;;6.22;90.07
75221;BME280;63802;53.232;6.570;2022-11-15T00:33:06;100964.44;;;6.15;90.15
75221;BME280;63802;53.232;6.570;2022-11-15T00:35:32;100967.31;;;6.10;90.35
75221;BME280;63802;53.232;6.570;2022-11-15T00:37:59;100965.47;;;6.02;90.48
75221;BME280;63802;53.232;6.570;2022-11-15T00:40:25;100965.66;;;5.97;90.73
75221;BME280;63802;53.232;6.570;2022-11-15T00:42:50;100954.66;;;6.02;91.16
75221;BME280;63802;53.232;6.570;2022-11-15T00:45:16;100950.50;;;6.04;91.65
75221;BME280;63802;53.232;6.570;2022-11-15T00:47:44;100938.16;;;6.07;91.67
75221;BME280;63802;53.232;6.570;2022-11-15T00:50:10;100947.53;;;6.18;91.94
75221;BME280;63802;53.232;6.570;2022-11-15T00:52:35;100943.47;;;6.24;91.86
75221;BME280;63802;53.232;6.570;2022-11-15T00:55:00;100935.69;;;6.23;91.78
75221;BME280;63802;53.232;6.570;2022-11-15T00:57:26;100948.03;;;6.32;91.93
75221;BME280;63802;53.232;6.570;2022-11-15T00:59:51;100911.91;;;6.28;92.03
75221;BME280;63802;53.232;6.570;2022-11-15T01:02:17;100930.94;;;6.40;91.98
75221;BME280;63802;53.232;6.570;2022-11-15T01:04:42;100910.09;;;6.32;91.90
75221;BME280;63802;53.232;6.570;2022-11-15T01:07:08;100915.38;;;6.49;91.44
75221;BME280;63802;53.232;6.570;2022-11-15T01:09:33;100904.28;;;6.42;91.07
75221;BME280;63802;53.232;6.570;2022-11-15T01:11:58;100915.28;;;6.58;91.35
75221;BME280;63802;53.232;6.570;2022-11-15T01:14:23;100895.97;;;6.47;90.85
75221;BME280;63802;53.232;6.570;2022-11-15T01:16:49;100910.56;;;6.55;90.01
75221;BME280;63802;53.232;6.570;2022-11-15T01:19:14;100910.31;;;6.60;90.61
75221;BME280;63802;53.232;6.570;2022-11-15T01:21:40;100913.38;;;6.58;90.31
75221;BME280;63802;53.232;6.570;2022-11-15T01:24:07;100908.22;;;6.65;89.97
75221;BME280;63802;53.232;6.570;2022-11-15T01:26:32;100908.09;;;6.62;89.48
75221;BME280;63802;53.232;6.570;2022-11-15T01:28:58;100900.84;;;6.54;89.62
75221;BME280;63802;53.232;6.570;2022-11-15T01:31:23;100892.31;;;6.43;89.98
75221;BME280;63802;53.232;6.570;2022-11-15T01:33:48;100904.91;;;6.60;89.71
75221;BME280;63802;53.232;6.570;2022-11-15T01:36:16;100890.59;;;6.59;89.18
75221;BME280;63802;53.232;6.570;2022-11-15T01:38:42;100900.66;;;6.71;89.06
75221;BME280;63802;53.232;6.570;2022-11-15T01:41:19;100886.66;;;6.69;88.79
75221;BME280;63802;53.232;6.570;2022-11-15T01:43:48;100887.22;;;6.74;88.41
75221;BME280;63802;53.232;6.570;2022-11-15T01:46:29;100893.78;;;6.73;87.69
75221;BME280;63802;53.232;6.570;2022-11-15T01:48:58;100885.88;;;6.68;87.86
75221;BME280;63802;53.232;6.570;2022-11-15T01:51:28;100871.72;;;6.63;87.91
75221;BME280;63802;53.232;6.570;2022-11-15T01:53:57;100863.50;;;6.71;87.69
75221;BME280;63802;53.232;6.570;2022-11-15T01:56:27;100875.25;;;6.75;87.66
75221;BME280;63802;53.232;6.570;2022-11-15T01:58:56;100881.47;;;6.76;88.05
75221;BME280;63802;53.232;6.570;2022-11-15T02:01:24;100879.09;;;6.74;87.81
75221;BME280;63802;53.232;6.570;2022-11-15T02:03:54;100862.81;;;6.74;87.70
75221;BME280;63802;53.232;6.570;2022-11-15T02:06:22;100872.09;;;6.73;88.12
75221;BME280;63802;53.232;6.570;2022-11-15T02:08:47;100867.13;;;6.75;88.24
75221;BME280;63802;53.232;6.570;2022-11-15T02:11:13;100872.09;;;6.73;88.02
75221;BME280;63802;53.232;6.570;2022-11-15T02:13:39;100872.09;;;6.73;88.31
75221;BME280;63802;53.232;6.570;2022-11-15T02:19:29;100858.75;;;6.68;88.21
75221;BME280;63802;53.232;6.570;2022-11-15T02:22:13;100859.66;;;6.72;88.66
75221;BME280;63802;53.232;6.570;2022-11-15T02:30:24;100847.56;;;6.70;88.10
75221;BME280;63802;53.232;6.570;2022-11-15T02:33:21;100859.19;;;6.70;88.42
75221;BME280;63802;53.232;6.570;2022-11-15T02:35:57;100847.91;;;6.68;88.32
75221;BME280;63802;53.232;6.570;2022-11-15T02:38:37;100853.44;;;6.72;88.94
75221;BME280;63802;53.232;6.570;2022-11-15T02:41:17;100836.91;;;6.65;88.65
75221;BME280;63802;53.232;6.570;2022-11-15T02:43:48;100842.47;;;6.68;88.57
75221;BME280;63802;53.232;6.570;2022-11-15T02:46:32;100850.41;;;6.73;88.88
75221;BME280;63802;53.232;6.570;2022-11-15T02:49:20;100849.94;;;6.71;88.80
75221;BME280;63802;53.232;6.570;2022-11-15T02:51:47;100832.44;;;6.69;89.33
75221;BME280;63802;53.232;6.570;2022-11-15T02:54:17;100831.63;;;6.68;89.06
75221;BME280;63802;53.232;6.570;2022-11-15T02:56:45;100843.59;;;6.67;89.10
75221;BME280;63802;53.232;6.570;2022-11-15T03:10:05;100834.44;;;6.72;89.98
75221;BME280;63802;53.232;6.570;2022-11-15T03:13:05;100823.28;;;6.73;90.16
75221;BME280;63802;53.232;6.570;2022-11-15T03:15:34;100834.44;;;6.72;90.07
75221;BME280;63802;53.232;6.570;2022-11-15T03:18:10;100820.13;;;6.71;90.18
75221;BME280;63802;53.232;6.570;2022-11-15T03:20:38;100829.50;;;6.74;90.39
75221;BME280;63802;53.232;6.570;2022-11-15T03:23:08;100831.88;;;6.75;90.16
75221;BME280;63802;53.232;6.570;2022-11-15T03:25:37;100828.94;;;6.81;90.48
75221;BME280;63802;53.232;6.570;2022-11-15T03:28:06;100822.63;;;6.77;90.11
75221;BME280;63802;53.232;6.570;2022-11-15T03:30:36;100818.53;;;6.83;90.33
75221;BME280;63802;53.232;6.570;2022-11-15T03:33:04;100815.16;;;6.86;90.55
75221;BME280;63802;53.232;6.570;2022-11-15T03:35:37;100811.22;;;6.83;90.62
75221;BME280;63802;53.232;6.570;2022-11-15T03:38:14;100778.97;;;6.69;90.41
75221;BME280;63802;53.232;6.570;2022-11-15T03:41:01;100815.41;;;6.93;90.79
75221;BME280;63802;53.232;6.570;2022-11-15T03:43:36;100816.97;;;6.94;90.69
75221;BME280;63802;53.232;6.570;2022-11-15T03:46:13;100807.72;;;6.95;90.70
75221;BME280;63802;53.232;6.570;2022-11-15T03:48:49;100782.38;;;6.79;90.80
75221;BME280;63802;53.232;6.570;2022-11-15T03:51:16;100803.75;;;6.92;90.64
75221;BME280;63802;53.232;6.570;2022-11-15T03:53:42;100784.19;;;6.87;90.77
75221;BME280;63802;53.232;6.570;2022-11-15T03:56:07;100798.34;;;7.04;90.59
75221;BME280;63802;53.232;6.570;2022-11-15T03:58:33;100799.56;;;7.07;90.63
75221;BME280;63802;53.232;6.570;2022-11-15T04:00:58;100779.13;;;6.97;91.19
75221;BME280;63802;53.232;6.570;2022-11-15T04:03:24;100797.22;;;7.05;91.03
75221;BME280;63802;53.232;6.570;2022-11-15T04:05:50;100795.41;;;7.09;90.88
75221;BME280;63802;53.232;6.570;2022-11-15T04:08:16;100760.22;;;6.89;90.88
75221;BME280;63802;53.232;6.570;2022-11-15T04:10:41;100763.28;;;6.87;90.83
75221;BME280;63802;53.232;6.570;2022-11-15T04:13:07;100792.00;;;7.12;90.74
75221;BME280;63802;53.232;6.570;2022-11-15T04:15:33;100791.22;;;7.12;91.11
75221;BME280;63802;53.232;6.570;2022-11-15T04:17:58;100797.09;;;7.14;90.79
75221;BME280;63802;53.232;6.570;2022-11-15T04:20:27;100781.84;;;7.09;91.10
75221;BME280;63802;53.232;6.570;2022-11-15T04:23:13;100793.69;;;7.17;91.13
75221;BME280;63802;53.232;6.570;2022-11-15T04:26:06;100793.00;;;7.20;90.88
75221;BME280;63802;53.232;6.570;2022-11-15T04:28:32;100794.59;;;7.21;91.34
75221;BME280;63802;53.232;6.570;2022-11-15T04:30:58;100796.19;;;7.22;91.30
75221;BME280;63802;53.232;6.570;2022-11-15T04:33:24;100800.47;;;7.23;91.46
75221;BME280;63802;53.232;6.570;2022-11-15T04:35:49;100785.13;;;7.15;91.84
75221;BME280;63802;53.232;6.570;2022-11-15T04:38:33;100803.19;;;7.23;91.66
75221;BME280;63802;53.232;6.570;2022-11-15T04:40:59;100787.69;;;7.23;91.93
75221;BME280;63802;53.232;6.570;2022-11-15T04:43:24;100797.19;;;7.29;92.35
75221;BME280;63802;53.232;6.570;2022-11-15T04:45:50;100797.19;;;7.29;92.57
75221;BME280;63802;53.232;6.570;2022-11-15T04:48:15;100764.53;;;7.14;92.39
75221;BME280;63802;53.232;6.570;2022-11-15T04:50:42;100793.47;;;7.34;92.45
75221;BME280;63802;53.232;6.570;2022-11-15T04:53:07;100798.09;;;7.33;92.99
75221;BME280;63802;53.232;6.570;2022-11-15T04:55:33;100785.31;;;7.34;92.84
75221;BME280;63802;53.232;6.570;2022-11-15T04:57:59;100783.06;;;7.36;92.90
75221;BME280;63802;53.232;6.570;2022-11-15T05:00:26;100784.28;;;7.38;92.86
75221;BME280;63802;53.232;6.570;2022-11-15T05:02:52;100758.63;;;7.24;92.88
75221;BME280;63802;53.232;6.570;2022-11-15T05:05:36;100778.06;;;7.38;93.29
75221;BME280;63802;53.232;6.570;2022-11-15T05:08:02;100792.09;;;7.40;93.44
75221;BME280;63802;53.232;6.570;2022-11-15T05:10:28;100781.44;;;7.47;93.68
75221;BME280;63802;53.232;6.570;2022-11-15T05:12:53;100777.94;;;7.47;93.59
75221;BME280;63802;53.232;6.570;2022-11-15T05:15:19;100770.13;;;7.45;93.44
75221;BME280;63802;53.232;6.570;2022-11-15T05:17:44;100769.78;;;7.47;93.82
75221;BME280;63802;53.232;6.570;2022-11-15T05:20:11;100780.97;;;7.57;93.79
75221;BME280;63802;53.232;6.570;2022-11-15T05:22:38;100773.94;;;7.56;94.06
75221;BME280;63802;53.232;6.570;2022-11-15T05:25:04;100770.09;;;7.57;93.61
75221;BME280;63802;53.232;6.570;2022-11-15T05:27:29;100766.28;;;7.58;93.87
75221;BME280;63802;53.232;6.570;2022-11-15T05:29:55;100767.97;;;7.63;94.09
75221;BME280;63802;53.232;6.570;2022-11-15T05:32:20;100773.47;;;7.66;94.02
75221;BME280;63802;53.232;6.570;2022-11-15T05:34:46;100771.91;;;7.65;94.34
75221;BME280;63802;53.232;6.570;2022-11-15T05:37:13;100769.41;;;7.72;94.55
75221;BME280;63802;53.232;6.570;2022-11-15T05:39:39;100774.13;;;7.75;94.40
75221;BME280;63802;53.232;6.570;2022-11-15T05:44:36;100773.09;;;7.80;94.71
75221;BME280;63802;53.232;6.570;2022-11-15T05:47:03;100775.72;;;7.76;94.86
75221;BME280;63802;53.232;6.570;2022-11-15T05:49:33;100769.84;;;7.74;94.75
75221;BME280;63802;53.232;6.570;2022-11-15T05:52:05;100780.22;;;7.84;94.86
75221;BME280;63802;53.232;6.570;2022-11-15T05:54:31;100775.69;;;7.88;94.79
75221;BME280;63802;53.232;6.570;2022-11-15T05:56:58;100779.50;;;7.87;95.18
75221;BME280;63802;53.232;6.570;2022-11-15T05:59:25;100763.00;;;7.80;94.97
75221;BME280;63802;53.232;6.570;2022-11-15T06:01:50;100784.72;;;7.92;95.20
75221;BME280;63802;53.232;6.570;2022-11-15T06:04:16;100776.75;;;7.99;95.37
75221;BME280;63802;53.232;6.570;2022-11-15T06:06:41;100798.81;;;8.10;95.54
75221;BME280;63802;53.232;6.570;2022-11-15T06:09:07;100791.88;;;8.13;95.27
75221;BME280;63802;53.232;6.570;2022-11-15T06:11:32;100776.94;;;8.06;95.10
75221;BME280;63802;53.232;6.570;2022-11-15T06:13:58;100791.28;;;8.19;95.61
75221;BME280;63802;53.232;6.570;2022-11-15T06:16:23;100785.16;;;8.22;95.31
75221;BME280;63802;53.232;6.570;2022-11-15T06:18:49;100781.22;;;8.20;95.63
75221;BME280;63802;53.232;6.570;2022-11-15T06:21:14;100799.84;;;8.33;95.79
75221;BME280;63802;53.232;6.570;2022-11-15T06:23:39;100805.72;;;8.35;95.83
75221;BME280;63802;53.232;6.570;2022-11-15T06:26:05;100802.31;;;8.38;95.77
75221;BME280;63802;53.232;6.570;2022-11-15T06:28:31;100800.47;;;8.42;95.83
75221;BME280;63802;53.232;6.570;2022-11-15T06:31:07;100785.47;;;8.33;96.09
75221;BME280;63802;53.232;6.570;2022-11-15T06:33:33;100794.28;;;8.42;95.75
75221;BME280;63802;53.232;6.570;2022-11-15T06:36:08;100807.69;;;8.50;96.02
75221;BME280;63802;53.232;6.570;2022-11-15T06:38:34;100802.94;;;8.47;96.22
75221;BME280;63802;53.232;6.570;2022-11-15T06:41:05;100813.69;;;8.56;96.15
75221;BME280;63802;53.232;6.570;2022-11-15T06:43:31;100795.31;;;8.53;96.04
75221;BME280;63802;53.232;6.570;2022-11-15T06:46:04;100801.81;;;8.64;95.96
75221;BME280;63802;53.232;6.570;2022-11-15T06:48:30;100813.34;;;8.73;95.96
75221;BME280;63802;53.232;6.570;2022-11-15T06:51:01;100819.22;;;8.75;96.19
75221;BME280;63802;53.232;6.570;2022-11-15T06:53:27;100806.75;;;8.74;96.26
75221;BME280;63802;53.232;6.570;2022-11-15T06:55:53;100810.00;;;8.80;96.08
75221;BME280;63802;53.232;6.570;2022-11-15T06:58:20;100813.97;;;8.82;96.51
75221;BME280;63802;53.232;6.570;2022-11-15T07:00:47;100816.44;;;8.87;96.39
75221;BME280;63802;53.232;6.570;2022-11-15T07:03:12;100813.44;;;8.92;96.52
75221;BME280;63802;53.232;6.570;2022-11-15T07:05:38;100824.41;;;8.96;96.69
75221;BME280;63802;53.232;6.570;2022-11-15T07:08:06;100823.72;;;8.99;96.34
75221;BME280;63802;53.232;6.570;2022-11-15T07:10:32;100820.88;;;8.95;96.44
75221;BME280;63802;53.232;6.570;2022-11-15T07:12:57;100820.72;;;9.04;96.66
75221;BME280;63802;53.232;6.570;2022-11-15T07:15:25;100810.63;;;9.04;96.70
75221;BME280;63802;53.232;6.570;2022-11-15T07:17:50;100823.63;;;9.11;96.67
75221;BME280;63802;53.232;6.570;2022-11-15T07:20:17;100821.69;;;9.11;96.79
75221;BME280;63802;53.232;6.570;2022-11-15T07:22:43;100833.44;;;9.15;96.35
75221;BME280;63802;53.232;6.570;2022-11-15T07:25:10;100820.09;;;9.10;96.38
75221;BME280;63802;53.232;6.570;2022-11-15T07:27:36;100822.66;;;9.19;96.51
75221;BME280;63802;53.232;6.570;2022-11-15T07:30:02;100834.47;;;9.26;96.80
75221;BME280;63802;53.232;6.570;2022-11-15T07:32:28;100830.63;;;9.27;96.73
75221;BME280;63802;53.232;6.570;2022-11-15T07:34:54;100842.13;;;9.36;96.72
75221;BME280;63802;53.232;6.570;2022-11-15T07:37:19;100834.66;;;9.33;96.35
75221;BME280;63802;53.232;6.570;2022-11-15T07:39:45;100839.38;;;9.36;96.51
75221;BME280;63802;53.232;6.570;2022-11-15T07:42:11;100847.28;;;9.41;96.71
75221;BME280;63802;53.232;6.570;2022-11-15T07:44:55;100838.69;;;9.39;96.67
75221;BME280;63802;53.232;6.570;2022-11-15T07:47:20;100849.75;;;9.47;96.37
75221;BME280;63802;53.232;6.570;2022-11-15T07:49:46;100841.31;;;9.52;96.80
75221;BME280;63802;53.232;6.570;2022-11-15T07:52:12;100847.19;;;9.54;96.52
75221;BME280;63802;53.232;6.570;2022-11-15T07:54:38;100839.44;;;9.56;96.81
75221;BME280;63802;53.232;6.570;2022-11-15T07:57:04;100837.63;;;9.60;96.33
75221;BME280;63802;53.232;6.570;2022-11-15T07:59:29;100832.94;;;9.60;96.47
75221;BME280;63802;53.232;6.570;2022-11-15T08:01:54;100843.97;;;9.67;96.38
75221;BME280;63802;53.232;6.570;2022-11-15T08:04:21;100845.56;;;9.68;96.37
75221;BME280;63802;53.232;6.570;2022-11-15T08:06:46;100840.97;;;9.72;96.23
75221;BME280;63802;53.232;6.570;2022-11-15T08:09:12;100831.59;;;9.70;96.19
75221;BME280;63802;53.232;6.570;2022-11-15T08:11:37;100827.72;;;9.71;96.23
75221;BME280;63802;53.232;6.570;2022-11-15T08:14:03;100835.53;;;9.72;96.32
75221;BME280;63802;53.232;6.570;2022-11-15T08:16:28;100843.53;;;9.81;96.53
75221;BME280;63802;53.232;6.570;2022-11-15T08:18:54;100835.94;;;9.90;95.99
75221;BME280;63802;53.232;6.570;2022-11-15T08:21:20;100846.56;;;9.95;95.90
75221;BME280;63802;53.232;6.570;2022-11-15T08:23:46;100839.09;;;9.92;95.79
75221;BME280;63802;53.232;6.570;2022-11-15T08:26:11;100834.44;;;9.92;95.85
75221;BME280;63802;53.232;6.570;2022-11-15T08:28:37;100851.34;;;10.01;95.70
75221;BME280;63802;53.232;6.570;2022-11-15T08:31:04;100840.53;;;10.05;95.64
75221;BME280;63802;53.232;6.570;2022-11-15T08:33:30;100836.22;;;10.04;95.50
75221;BME280;63802;53.232;6.570;2022-11-15T08:36:00;100847.03;;;10.16;95.71
75221;BME280;63802;53.232;6.570;2022-11-15T08:38:26;100832.97;;;10.14;95.53
75221;BME280;63802;53.232;6.570;2022-11-15T08:41:00;100838.59;;;10.25;95.47
75221;BME280;63802;53.232;6.570;2022-11-15T08:43:26;100834.31;;;10.24;95.12
75221;BME280;63802;53.232;6.570;2022-11-15T08:45:51;100835.97;;;10.28;94.84
75221;BME280;63802;53.232;6.570;2022-11-15T08:48:20;100839.13;;;10.30;94.63
75221;BME280;63802;53.232;6.570;2022-11-15T08:50:46;100825.06;;;10.28;94.90
75221;BME280;63802;53.232;6.570;2022-11-15T08:53:12;100834.50;;;10.34;94.56
75221;BME280;63802;53.232;6.570;2022-11-15T08:55:39;100824.78;;;10.33;94.60
75221;BME280;63802;53.232;6.570;2022-11-15T08:58:05;100824.47;;;10.38;94.37
75221;BME280;63802;53.232;6.570;2022-11-15T09:00:31;100816.72;;;10.40;94.48
75221;BME280;63802;53.232;6.570;2022-11-15T09:02:57;100800.22;;;10.33;93.85
75221;BME280;63802;53.232;6.570;2022-11-15T09:05:23;100809.88;;;10.50;93.85
75221;BME280;63802;53.232;6.570;2022-11-15T09:07:53;100806.78;;;10.51;93.83
75221;BME280;63802;53.232;6.570;2022-11-15T09:10:22;100810.50;;;10.62;93.52
75221;BME280;63802;53.232;6.570;2022-11-15T09:12:47;100800.13;;;10.71;93.25
75221;BME280;63802;53.232;6.570;2022-11-15T09:15:14;100793.59;;;10.76;92.89
75221;BME280;63802;53.232;6.570;2022-11-15T09:17:43;100800.75;;;10.84;93.34
75221;BME280;63802;53.232;6.570;2022-11-15T09:20:08;100801.59;;;10.88;92.61
75221;BME280;63802;53.232;6.570;2022-11-15T09:22:34;100806.31;;;10.91;92.34
75221;BME280;63802;53.232;6.570;2022-11-15T09:25:02;100803.59;;;10.91;92.05
75221;BME280;63802;53.232;6.570;2022-11-15T09:27:29;100776.72;;;10.70;91.92
75221;BME280;63802;53.232;6.570;2022-11-15T09:29:55;100777.50;;;10.71;91.79
75221;BME280;63802;53.232;6.570;2022-11-15T09:32:20;100801.22;;;10.90;91.63
75221;BME280;63802;53.232;6.570;2022-11-15T09:34:48;100804.44;;;10.95;91.52
75221;BME280;63802;53.232;6.570;2022-11-15T09:37:13;100806.91;;;11.04;91.33
75221;BME280;63802;53.232;6.570;2022-11-15T09:39:39;100808.59;;;11.12;91.20
75221;BME280;63802;53.232;6.570;2022-11-15T09:47:53;100794.44;;;11.03;90.70
75221;BME280;63802;53.232;6.570;2022-11-15T09:50:31;100809.78;;;11.11;90.61
75221;BME280;63802;53.232;6.570;2022-11-15T09:52:59;100803.44;;;11.07;90.40
75221;BME280;63802;53.232;6.570;2022-11-15T09:55:36;100805.03;;;11.08;90.62
75221;BME280;63802;53.232;6.570;2022-11-15T09:58:24;100803.16;;;11.12;90.38
75221;BME280;63802;53.232;6.570;2022-11-15T10:00:51;100789.06;;;11.10;90.39
75221;BME280;63802;53.232;6.570;2022-11-15T10:03:26;100801.00;;;11.24;90.26
75221;BME280;63802;53.232;6.570;2022-11-15T10:05:56;100800.22;;;11.24;90.15
75221;BME280;63802;53.232;6.570;2022-11-15T10:08:58;100785.72;;;11.20;90.27
75221;BME280;63802;53.232;6.570;2022-11-15T10:11:28;100797.91;;;11.26;90.19
75221;BME280;63802;53.232;6.570;2022-11-15T10:14:00;100779.16;;;11.24;89.80
75221;BME280;63802;53.232;6.570;2022-11-15T10:24:19;100776.84;;;11.26;89.61
75221;BME280;63802;53.232;6.570;2022-11-15T10:26:48;100749.75;;;11.14;89.66
75221;BME280;63802;53.232;6.570;2022-11-15T10:29:21;100757.34;;;11.28;89.79
75221;BME280;63802;53.232;6.570;2022-11-15T10:31:48;100766.06;;;11.37;89.49
75221;BME280;63802;53.232;6.570;2022-11-15T10:34:19;100759.03;;;11.36;89.84
75221;BME280;63802;53.232;6.570;2022-11-15T10:36:47;100764.50;;;11.36;89.51
75221;BME280;63802;53.232;6.570;2022-11-15T10:39:19;100752.78;;;11.35;89.10
75221;BME280;63802;53.232;6.570;2022-11-15T10:41:44;100755.56;;;11.39;89.08
75221;BME280;63802;53.232;6.570;2022-11-15T10:44:18;100746.50;;;11.35;89.10
75221;BME280;63802;53.232;6.570;2022-11-15T10:47:05;100763.13;;;11.49;88.94
75221;BME280;63802;53.232;6.570;2022-11-15T10:49:33;100741.19;;;11.45;89.24
75221;BME280;63802;53.232;6.570;2022-11-15T10:54:50;100745.97;;;11.52;89.14
75221;BME280;63802;53.232;6.570;2022-11-15T10:57:23;100728.00;;;11.51;88.77
75221;BME280;63802;53.232;6.570;2022-11-15T10:59:51;100740.09;;;11.50;89.08
75221;BME280;63802;53.232;6.570;2022-11-15T11:02:37;100734.28;;;11.52;89.13
75221;BME280;63802;53.232;6.570;2022-11-15T11:05:29;100738.47;;;11.45;89.69
75221;BME280;63802;53.232;6.570;2022-11-15T11:07:59;100738.06;;;11.43;90.05
75221;BME280;63802;53.232;6.570;2022-11-15T11:10:26;100740.31;;;11.38;90.36
75221;BME280;63802;53.232;6.570;2022-11-15T11:12:52;100735.59;;;11.35;90.44
75221;BME280;63802;53.232;6.570;2022-11-15T11:15:18;100734.84;;;11.38;90.76
75221;BME280;63802;53.232;6.570;2022-11-15T11:17:57;100737.97;;;11.36;90.91
75221;BME280;63802;53.232;6.570;2022-11-15T11:20:57;100731.69;;;11.36;91.21
75221;BME280;63802;53.232;6.570;2022-11-15T11:26:15;100731.53;;;11.52;91.52
75221;BME280;63802;53.232;6.570;2022-11-15T11:28:56;100732.06;;;11.64;91.69
75221;BME280;63802;53.232;6.570;2022-11-15T11:31:35;100715.06;;;11.74;91.61
75221;BME280;63802;53.232;6.570;2022-11-15T11:39:54;100722.50;;;12.10;91.00
75221;BME280;63802;53.232;6.570;2022-11-15T11:48:12;100713.13;;;12.12;90.17
75221;BME280;63802;53.232;6.570;2022-11-15T11:50:41;100704.22;;;12.22;89.91
75221;BME280;63802;53.232;6.570;2022-11-15T11:55:57;100698.41;;;12.23;89.34
75221;BME280;63802;53.232;6.570;2022-11-15T11:58:34;100701.50;;;12.22;89.08
75221;BME280;63802;53.232;6.570;2022-11-15T12:01:10;100711.00;;;12.35;89.03
75221;BME280;63802;53.232;6.570;2022-11-15T12:06:27;100701.50;;;12.22;88.62
75221;BME280;63802;53.232;6.570;2022-11-15T12:09:03;100706.06;;;12.10;88.52
75221;BME280;63802;53.232;6.570;2022-11-15T12:12:25;100694.31;;;12.06;88.48
75221;BME280;63802;53.232;6.570;2022-11-15T12:17:19;100689.59;;;12.03;88.30
75221;BME280;63802;53.232;6.570;2022-11-15T12:19:46;100675.91;;;12.03;88.22
75221;BME280;63802;53.232;6.570;2022-11-15T12:24:53;100676.00;;;12.10;87.41
75221;BME280;63802;53.232;6.570;2022-11-15T12:29:58;100679.00;;;11.98;86.59
75221;BME280;63802;53.232;6.570;2022-11-15T12:32:31;100682.53;;;11.99;86.53
75221;BME280;63802;53.232;6.570;2022-11-15T12:34:59;100679.31;;;11.93;85.78
75221;BME280;63802;53.232;6.570;2022-11-15T12:42:39;100672.94;;;12.19;85.72
75221;BME280;63802;53.232;6.570;2022-11-15T13:06:58;100673.19;;;12.03;83.58
75221;BME280;63802;53.232;6.570;2022-11-15T13:12:01;100660.09;;;12.27;83.75
75221;BME280;63802;53.232;6.570;2022-11-15T13:17:10;100645.50;;;12.52;81.24
75221;BME280;63802;53.232;6.570;2022-11-15T13:19:38;100644.66;;;12.45;80.61
75221;BME280;63802;53.232;6.570;2022-11-15T13:22:09;100654.88;;;12.55;80.77
75221;BME280;63802;53.232;6.570;2022-11-15T13:24:56;100630.47;;;12.36;80.85
75221;BME280;63802;53.232;6.570;2022-11-15T13:27:22;100644.66;;;12.48;80.61
75221;BME280;63802;53.232;6.570;2022-11-15T13:29:48;100638.31;;;12.37;80.11
75221;BME280;63802;53.232;6.570;2022-11-15T13:32:15;100644.53;;;12.31;80.61
75221;BME280;63802;53.232;6.570;2022-11-15T13:34:49;100639.75;;;12.21;81.09
75221;BME280;63802;53.232;6.570;2022-11-15T13:37:38;100626.34;;;12.08;81.32
75221;BME280;63802;53.232;6.570;2022-11-15T13:40:18;100622.31;;;11.95;81.21
75221;BME280;63802;53.232;6.570;2022-11-15T13:42:45;100629.25;;;11.86;81.32
75221;BME280;63802;53.232;6.570;2022-11-15T13:45:14;100622.09;;;11.74;81.81
75221;BME280;63802;53.232;6.570;2022-11-15T13:47:42;100615.09;;;11.73;81.71
75221;BME280;63802;53.232;6.570;2022-11-15T13:50:13;100615.72;;;11.63;81.68
75221;BME280;63802;53.232;6.570;2022-11-15T13:52:40;100618.84;;;11.65;82.13
75221;BME280;63802;53.232;6.570;2022-11-15T13:55:13;100608.66;;;11.62;82.00
75221;BME280;63802;53.232;6.570;2022-11-15T13:57:44;100609.84;;;11.61;82.13
75221;BME280;63802;53.232;6.570;2022-11-15T14:02:51;100600.00;;;11.53;82.39
75221;BME280;63802;53.232;6.570;2022-11-15T14:05:19;100596.84;;;11.51;82.58
75221;BME280;63802;53.232;6.570;2022-11-15T14:08:12;100585.50;;;11.49;82.11
75221;BME280;63802;53.232;6.570;2022-11-15T14:10:46;100567.03;;;11.39;82.57
75221;BME280;63802;53.232;6.570;2022-11-15T14:13:28;100575.72;;;11.48;82.55
75221;BME280;63802;53.232;6.570;2022-11-15T14:15:54;100572.50;;;11.39;82.73
75221;BME280;63802;53.232;6.570;2022-11-15T14:18:43;100571.66;;;11.35;83.20
75221;BME280;63802;53.232;6.570;2022-11-15T14:21:09;100563.03;;;11.29;83.53
75221;BME280;63802;53.232;6.570;2022-11-15T14:23:35;100556.78;;;11.29;83.98
75221;BME280;63802;53.232;6.570;2022-11-15T14:26:01;100561.34;;;11.18;84.24
75221;BME280;63802;53.232;6.570;2022-11-15T14:30:54;100554.22;;;11.10;84.60
75221;BME280;63802;53.232;6.570;2022-11-15T14:35:55;100554.16;;;11.06;84.80
75221;BME280;63802;53.232;6.570;2022-11-15T14:38:22;100554.94;;;11.03;84.69
75221;BME280;63802;53.232;6.570;2022-11-15T14:40:48;100556.41;;;10.97;84.87
75221;BME280;63802;53.232;6.570;2022-11-15T14:43:14;100548.84;;;10.87;85.09
75221;BME280;63802;53.232;6.570;2022-11-15T14:45:40;100543.75;;;10.82;84.69
75221;BME280;63802;53.232;6.570;2022-11-15T14:48:06;100544.09;;;10.81;84.74
75221;BME280;63802;53.232;6.570;2022-11-15T14:50:32;100550.75;;;10.80;84.79
75221;BME280;63802;53.232;6.570;2022-11-15T14:53:00;100548.66;;;10.69;84.96